createdAt,value
2022-08-30T00:00:00.219Z,14.9
2022-08-30T00:05:00.181Z,14.9
2022-08-30T00:10:00.188Z,14.8
2022-08-30T00:15:00.213Z,14.8
2022-08-30T00:20:00.174Z,14.7
2022-08-30T00:25:00.173Z,14.6
2022-08-30T00:30:00.227Z,14.5
2022-08-30T00:35:00.180Z,14.5
2022-08-30T00:40:00.286Z,14.5
2022-08-30T00:45:00.176Z,14.4
2022-08-30T00:50:00.189Z,14.3
2022-08-30T00:55:00.219Z,14.2
2022-08-30T01:00:00.230Z,14.2
2022-08-30T01:05:00.152Z,14.1
2022-08-30T01:10:00.177Z,14.0
2022-08-30T01:15:00.186Z,13.9
2022-08-30T01:20:00.180Z,13.9
2022-08-30T01:25:00.209Z,13.9
2022-08-30T01:30:00.169Z,13.9
2022-08-30T01:35:00.178Z,13.8
2022-08-30T01:40:00.331Z,13.7
2022-08-30T01:45:00.161Z,13.6
2022-08-30T01:50:00.175Z,13.5
2022-08-30T01:55:00.171Z,13.5
2022-08-30T02:00:00.192Z,13.4
2022-08-30T02:05:00.165Z,13.3
2022-08-30T02:10:00.179Z,13.3
2022-08-30T02:15:00.191Z,13.3
2022-08-30T02:20:00.173Z,13.3
2022-08-30T02:25:00.183Z,13.3
2022-08-30T02:30:00.163Z,13.3
2022-08-30T02:35:00.170Z,13.2
2022-08-30T02:40:00.313Z,13.2
2022-08-30T02:45:00.170Z,13.1
2022-08-30T02:50:00.213Z,13.0
2022-08-30T02:55:00.193Z,13.0
2022-08-30T03:00:00.226Z,13.0
2022-08-30T03:05:00.162Z,13.0
2022-08-30T03:10:00.177Z,13.0
2022-08-30T03:15:00.185Z,13.0
2022-08-30T03:20:00.244Z,12.9
2022-08-30T03:25:00.175Z,12.9
2022-08-30T03:30:00.157Z,12.9
2022-08-30T03:35:00.180Z,12.9
2022-08-30T03:40:00.309Z,12.8
2022-08-30T03:45:00.174Z,12.8
2022-08-30T03:50:00.190Z,12.8
2022-08-30T03:55:00.179Z,12.8
2022-08-30T04:00:00.292Z,12.8
2022-08-30T04:05:00.176Z,12.7
2022-08-30T04:10:00.202Z,12.7
2022-08-30T04:15:00.176Z,12.6
2022-08-30T04:20:00.206Z,12.6
2022-08-30T04:25:00.196Z,12.7
2022-08-30T04:30:00.214Z,12.8
2022-08-30T04:35:00.185Z,12.7
2022-08-30T04:40:00.344Z,12.6
2022-08-30T04:45:00.188Z,12.6
2022-08-30T04:50:00.228Z,12.6
2022-08-30T04:55:00.191Z,12.6
2022-08-30T05:00:00.274Z,12.6
2022-08-30T05:05:00.192Z,12.5
2022-08-30T05:10:00.208Z,12.6
2022-08-30T05:15:00.201Z,12.6
2022-08-30T05:20:00.202Z,12.6
2022-08-30T05:25:00.166Z,12.6
2022-08-30T05:30:00.215Z,12.7
2022-08-30T05:35:00.199Z,12.8
2022-08-30T05:40:00.346Z,12.9
2022-08-30T05:45:00.202Z,12.9
2022-08-30T05:50:00.205Z,13.0
2022-08-30T05:55:00.223Z,13.1
2022-08-30T06:00:00.273Z,13.3
2022-08-30T06:05:00.211Z,13.5
2022-08-30T06:10:00.481Z,13.8
2022-08-30T06:15:00.209Z,14.4
2022-08-30T06:20:00.235Z,15.0
2022-08-30T06:25:00.214Z,15.3
2022-08-30T06:30:00.256Z,15.6
2022-08-30T06:35:00.452Z,16.2
2022-08-30T06:40:00.462Z,16.4
2022-08-30T06:45:00.195Z,16.3
2022-08-30T06:50:00.273Z,16.4
2022-08-30T06:55:00.240Z,17.0
2022-08-30T07:00:00.215Z,17.5
2022-08-30T07:05:00.235Z,17.8
2022-08-30T07:10:00.188Z,17.8
2022-08-30T07:15:00.208Z,17.8
2022-08-30T07:20:00.228Z,18.0
2022-08-30T07:25:00.192Z,18.4
2022-08-30T07:30:00.225Z,18.7
2022-08-30T07:35:00.187Z,18.8
2022-08-30T07:40:00.286Z,18.8
2022-08-30T07:45:00.199Z,18.9
2022-08-30T07:50:00.233Z,19.5
2022-08-30T07:55:00.193Z,19.5
2022-08-30T08:00:00.241Z,19.6
2022-08-30T08:05:00.187Z,19.7
2022-08-30T08:10:00.182Z,19.9
2022-08-30T08:15:01.359Z,20.3
2022-08-30T08:20:00.202Z,20.3
2022-08-30T08:25:00.177Z,20.1
2022-08-30T08:30:00.201Z,20.5
2022-08-30T08:35:00.189Z,20.7
2022-08-30T08:40:00.366Z,20.9
2022-08-30T08:45:00.222Z,20.7
2022-08-30T08:50:00.199Z,20.9
2022-08-30T08:55:00.195Z,21.4
2022-08-30T09:00:00.361Z,21.1
2022-08-30T09:05:00.259Z,21.2
2022-08-30T09:10:00.220Z,21.3
2022-08-30T09:15:00.209Z,21.4
2022-08-30T09:20:00.585Z,21.9
2022-08-30T09:25:00.213Z,21.9
2022-08-30T09:30:00.220Z,22.3
2022-08-30T09:35:00.440Z,21.7
2022-08-30T09:40:00.290Z,21.7
2022-08-30T09:45:00.253Z,21.7
2022-08-30T09:50:00.350Z,22.3
2022-08-30T09:55:00.340Z,22.1
2022-08-30T10:00:00.225Z,22.0
2022-08-30T10:05:00.221Z,22.2
2022-08-30T10:10:00.193Z,22.3
2022-08-30T10:15:00.194Z,22.4
2022-08-30T10:20:00.233Z,22.4
2022-08-30T10:25:00.173Z,22.5
2022-08-30T10:30:00.420Z,22.8
2022-08-30T10:35:00.375Z,22.5
2022-08-30T10:40:00.321Z,22.9
2022-08-30T10:45:00.472Z,23.1
2022-08-30T10:50:00.199Z,23.0
2022-08-30T10:55:00.656Z,23.0
2022-08-30T11:00:00.366Z,23.4
2022-08-30T11:05:00.575Z,23.2
2022-08-30T11:10:00.526Z,23.1
2022-08-30T11:15:00.240Z,23.1
2022-08-30T11:20:00.197Z,23.4
2022-08-30T11:25:00.196Z,23.6
2022-08-30T11:30:00.210Z,23.9
2022-08-30T11:35:00.290Z,23.9
2022-08-30T11:40:01.983Z,23.7
2022-08-30T11:45:00.364Z,24.2
2022-08-30T11:50:00.214Z,23.7
2022-08-30T11:55:00.173Z,24.1
2022-08-30T12:00:00.335Z,24.4
2022-08-30T12:05:00.205Z,24.2
2022-08-30T12:10:00.229Z,24.0
2022-08-30T12:15:00.195Z,24.7
2022-08-30T12:20:00.183Z,24.7
2022-08-30T12:25:00.206Z,24.7
2022-08-30T12:30:00.191Z,24.9
2022-08-30T12:35:00.174Z,24.8
2022-08-30T12:40:00.370Z,24.7
2022-08-30T12:45:00.210Z,25.0
2022-08-30T12:50:00.297Z,24.9
2022-08-30T12:55:00.187Z,24.9
2022-08-30T13:00:02.012Z,25.1
2022-08-30T13:05:00.229Z,25.4
2022-08-30T13:10:00.223Z,25.5
2022-08-30T13:15:00.223Z,24.7
2022-08-30T13:20:00.305Z,24.6
2022-08-30T13:25:00.249Z,25.3
2022-08-30T13:30:00.357Z,25.1
2022-08-30T13:35:00.272Z,25.5
2022-08-30T13:40:04.595Z,25.7
2022-08-30T13:45:00.212Z,25.6
2022-08-30T13:50:00.320Z,25.5
2022-08-30T13:55:00.280Z,25.4
2022-08-30T14:00:00.321Z,25.8
2022-08-30T14:05:03.049Z,25.5
2022-08-30T14:10:30.891Z,25.3
2022-08-30T14:15:00.549Z,25.5
2022-08-30T14:20:00.211Z,25.6
2022-08-30T14:25:00.197Z,25.2
2022-08-30T14:30:00.208Z,25.2
2022-08-30T14:35:00.183Z,25.7
2022-08-30T14:40:00.277Z,25.5
2022-08-30T14:45:00.204Z,25.4
2022-08-30T14:50:00.218Z,25.1
2022-08-30T14:55:05.153Z,25.4
2022-08-30T15:00:00.314Z,24.7
2022-08-30T15:05:00.317Z,24.7
2022-08-30T15:10:00.252Z,24.1
2022-08-30T15:15:00.260Z,24.0
2022-08-30T15:20:00.495Z,23.9
2022-08-30T15:25:00.178Z,23.7
2022-08-30T15:30:00.310Z,24.0
2022-08-30T15:35:00.303Z,23.7
2022-08-30T15:40:00.293Z,23.6
2022-08-30T15:45:00.189Z,23.9
2022-08-30T15:50:00.223Z,23.8
2022-08-30T15:55:00.250Z,23.6
2022-08-30T16:00:00.235Z,23.4
2022-08-30T16:05:00.343Z,23.5
2022-08-30T16:10:00.261Z,23.2
2022-08-30T16:15:00.195Z,23.3
2022-08-30T16:20:00.327Z,23.3
2022-08-30T16:25:00.241Z,23.3
2022-08-30T16:30:00.218Z,23.1
2022-08-30T16:35:00.210Z,23.2
2022-08-30T16:40:00.359Z,23.1
2022-08-30T16:45:00.823Z,23.2
2022-08-30T16:50:00.722Z,23.1
2022-08-30T16:55:00.189Z,23.1
2022-08-30T17:00:00.248Z,23.0
2022-08-30T17:05:00.190Z,22.7
2022-08-30T17:10:00.181Z,22.4
2022-08-30T17:15:00.189Z,22.0
2022-08-30T17:20:00.178Z,21.9
2022-08-30T17:25:00.180Z,21.7
2022-08-30T17:30:00.182Z,21.7
2022-08-30T17:35:00.184Z,21.5
2022-08-30T17:40:00.517Z,21.3
2022-08-30T17:45:03.954Z,21.2
2022-08-30T17:50:00.197Z,21.0
2022-08-30T17:55:00.188Z,20.8
2022-08-30T18:00:00.322Z,20.6
2022-08-30T18:05:00.236Z,20.5
2022-08-30T18:10:00.236Z,20.5
2022-08-30T18:15:00.199Z,20.2
2022-08-30T18:20:00.201Z,20.0
2022-08-30T18:25:02.605Z,19.9
2022-08-30T18:30:00.202Z,19.8
2022-08-30T18:35:00.180Z,19.6
2022-08-30T18:40:00.962Z,19.5
2022-08-30T18:45:14.516Z,19.3
2022-08-30T18:50:00.224Z,19.2
2022-08-30T18:55:00.188Z,19.1
2022-08-30T19:00:00.219Z,19.0
2022-08-30T19:05:00.197Z,18.9
2022-08-30T19:10:00.173Z,18.8
2022-08-30T19:15:00.178Z,18.7
2022-08-30T19:20:00.197Z,18.5
2022-08-30T19:25:00.180Z,18.5
2022-08-30T19:30:00.197Z,18.4
2022-08-30T19:35:00.226Z,18.3
2022-08-30T19:40:00.789Z,18.2
2022-08-30T19:45:00.198Z,18.2
2022-08-30T19:50:00.230Z,18.1
2022-08-30T19:55:00.242Z,18.0
2022-08-30T20:00:00.307Z,18.0
2022-08-30T20:05:00.161Z,17.9
2022-08-30T20:10:00.189Z,17.8
2022-08-30T20:15:00.194Z,17.7
2022-08-30T20:20:00.189Z,17.7
2022-08-30T20:25:00.180Z,17.7
2022-08-30T20:30:00.195Z,17.7
2022-08-30T20:35:00.179Z,17.5
2022-08-30T20:40:00.293Z,17.4
2022-08-30T20:45:00.200Z,17.3
2022-08-30T20:50:00.185Z,17.3
2022-08-30T20:55:00.187Z,17.3
2022-08-30T21:00:00.227Z,17.4
2022-08-30T21:05:00.181Z,17.3
2022-08-30T21:10:00.301Z,17.2
2022-08-30T21:15:07.311Z,17.0
2022-08-30T21:20:00.180Z,16.8
2022-08-30T21:25:00.209Z,16.8
2022-08-30T21:30:00.181Z,16.7
2022-08-30T21:35:00.186Z,16.7
2022-08-30T21:40:00.298Z,16.6
2022-08-30T21:45:00.157Z,16.5
2022-08-30T21:50:00.186Z,16.4
2022-08-30T21:55:00.175Z,16.3
2022-08-30T22:00:00.250Z,16.2
2022-08-30T22:05:00.173Z,16.1
2022-08-30T22:10:00.184Z,16.0
2022-08-30T22:15:00.177Z,16.0
2022-08-30T22:20:00.168Z,15.9
2022-08-30T22:25:00.185Z,15.8
2022-08-30T22:30:00.206Z,15.7
2022-08-30T22:35:00.159Z,15.7
2022-08-30T22:40:00.274Z,15.6
2022-08-30T22:45:00.152Z,15.6
2022-08-30T22:50:00.187Z,15.5
2022-08-30T22:55:00.157Z,15.4
2022-08-30T23:00:00.196Z,15.4
2022-08-30T23:05:00.189Z,15.3
2022-08-30T23:10:00.189Z,15.3
2022-08-30T23:15:00.179Z,15.2
2022-08-30T23:20:00.195Z,15.1
2022-08-30T23:25:00.174Z,15.1
2022-08-30T23:30:00.193Z,15.1
2022-08-30T23:35:00.178Z,15.0
2022-08-30T23:40:00.299Z,15.0
2022-08-30T23:45:00.198Z,14.9
2022-08-30T23:50:00.192Z,14.9
2022-08-30T23:55:00.185Z,14.9
